createdAt,value
2024-04-18T00:01:56.349Z,3.96
2024-04-18T00:04:26.187Z,3.94
2024-04-18T00:06:57.918Z,3.91
2024-04-18T00:09:24.558Z,3.88
2024-04-18T00:11:56.174Z,3.85
2024-04-18T00:14:22.796Z,3.83
2024-04-18T00:16:51.786Z,3.81
2024-04-18T00:19:21.632Z,3.80
2024-04-18T00:21:48.330Z,3.79
2024-04-18T00:24:14.996Z,3.77
2024-04-18T00:26:43.891Z,3.78
2024-04-18T00:29:10.492Z,3.80
2024-04-18T00:31:37.146Z,3.80
2024-04-18T00:34:03.818Z,3.81
2024-04-18T00:36:32.721Z,3.81
2024-04-18T00:39:01.599Z,3.81
2024-04-18T00:41:28.314Z,3.82
2024-04-18T00:43:58.907Z,3.82
2024-04-18T00:46:28.473Z,3.80
2024-04-18T00:48:58.944Z,3.78
2024-04-18T00:51:28.318Z,3.77
2024-04-18T00:54:00.416Z,3.76
2024-04-18T00:56:27.286Z,3.75
2024-04-18T00:58:54.163Z,3.72
2024-04-18T01:01:22.598Z,3.72
2024-04-18T01:03:50.561Z,3.70
2024-04-18T01:06:19.475Z,3.67
2024-04-18T01:08:46.138Z,3.65
2024-04-18T01:11:12.823Z,3.62
2024-04-18T01:13:39.741Z,3.59
2024-04-18T01:16:06.743Z,3.57
2024-04-18T01:18:33.580Z,3.55
2024-04-18T01:21:00.605Z,3.53
2024-04-18T01:23:30.776Z,3.50
2024-04-18T01:25:59.877Z,3.48
2024-04-18T01:28:26.499Z,3.45
2024-04-18T01:30:53.204Z,3.41
2024-04-18T01:33:20.630Z,3.37
2024-04-18T01:35:49.272Z,3.33
2024-04-18T01:38:15.847Z,3.28
2024-04-18T01:40:42.549Z,3.27
2024-04-18T01:43:11.539Z,3.21
2024-04-18T01:45:38.153Z,3.16
2024-04-18T01:48:05.422Z,3.13
2024-04-18T01:50:34.361Z,3.11
2024-04-18T01:53:03.277Z,3.06
2024-04-18T01:55:29.942Z,3.02
2024-04-18T01:58:01.132Z,3.01
2024-04-18T02:00:27.779Z,3.00
2024-04-18T02:02:57.561Z,2.97
2024-04-18T02:05:28.723Z,2.93
2024-04-18T02:07:55.346Z,2.91
2024-04-18T02:10:22.161Z,2.86
2024-04-18T02:12:48.842Z,2.84
2024-04-18T02:15:15.637Z,2.81
2024-04-18T02:17:42.407Z,2.78
2024-04-18T02:20:09.831Z,2.74
2024-04-18T02:22:36.452Z,2.72
2024-04-18T02:25:10.637Z,2.69
2024-04-18T02:27:45.777Z,2.68
2024-04-18T02:30:12.978Z,2.67
2024-04-18T02:32:40.229Z,2.65
2024-04-18T02:35:07.122Z,2.62
2024-04-18T02:37:33.798Z,2.59
2024-04-18T02:40:05.290Z,2.56
2024-04-18T02:42:32.075Z,2.53
2024-04-18T02:45:01.446Z,2.51
2024-04-18T02:47:28.803Z,2.49
2024-04-18T02:49:55.454Z,2.45
2024-04-18T02:52:22.105Z,2.42
2024-04-18T02:54:53.379Z,2.38
2024-04-18T02:57:20.039Z,2.35
2024-04-18T02:59:48.905Z,2.32
2024-04-18T03:02:17.752Z,2.28
2024-04-18T03:04:46.752Z,2.27
2024-04-18T03:07:13.425Z,2.29
2024-04-18T03:09:42.269Z,2.30
2024-04-18T03:12:09.154Z,2.33
2024-04-18T03:14:35.766Z,2.39
2024-04-18T03:17:02.412Z,2.45
2024-04-18T03:19:31.319Z,2.49
2024-04-18T03:22:02.563Z,2.53
2024-04-18T03:24:29.338Z,2.52
2024-04-18T03:26:58.524Z,2.51
2024-04-18T03:29:28.205Z,2.47
2024-04-18T03:31:54.907Z,2.48
2024-04-18T03:34:21.553Z,2.48
2024-04-18T03:36:50.817Z,2.51
2024-04-18T03:39:17.579Z,2.51
2024-04-18T03:41:49.055Z,2.51
2024-04-18T03:44:23.110Z,2.47
2024-04-18T03:46:49.733Z,2.45
2024-04-18T03:49:16.425Z,2.45
2024-04-18T03:51:43.072Z,2.46
2024-04-18T03:54:09.755Z,2.47
2024-04-18T03:56:36.686Z,2.47
2024-04-18T03:59:03.362Z,2.45
2024-04-18T04:01:31.006Z,2.44
2024-04-18T04:03:58.262Z,2.38
2024-04-18T04:06:25.075Z,2.33
2024-04-18T04:08:54.188Z,2.28
2024-04-18T04:11:21.611Z,2.25
2024-04-18T04:13:48.291Z,2.24
2024-04-18T04:16:17.208Z,2.19
2024-04-18T04:18:44.623Z,2.17
2024-04-18T04:21:11.309Z,2.14
2024-04-18T04:23:38.263Z,2.10
2024-04-18T04:26:05.080Z,2.05
2024-04-18T04:28:31.718Z,2.03
2024-04-18T04:31:03.113Z,2.01
2024-04-18T04:33:35.047Z,1.98
2024-04-18T04:36:01.682Z,1.96
2024-04-18T04:38:30.478Z,1.92
2024-04-18T04:40:57.196Z,1.87
2024-04-18T04:43:28.417Z,1.81
2024-04-18T04:45:58.833Z,1.79
2024-04-18T04:48:25.732Z,1.80
2024-04-18T04:50:58.505Z,1.82
2024-04-18T04:53:25.769Z,1.80
2024-04-18T04:55:52.453Z,1.79
2024-04-18T04:58:21.472Z,1.80
2024-04-18T05:00:50.639Z,1.80
2024-04-18T05:03:17.392Z,1.83
2024-04-18T05:05:44.280Z,1.85
2024-04-18T05:08:11.149Z,1.85
2024-04-18T05:10:47.309Z,1.83
2024-04-18T05:13:15.451Z,1.87
2024-04-18T05:15:42.491Z,1.87
2024-04-18T05:18:12.651Z,1.91
2024-04-18T05:20:39.670Z,1.94
2024-04-18T05:23:08.373Z,2.00
2024-04-18T05:25:37.482Z,2.07
2024-04-18T05:28:11.797Z,2.10
2024-04-18T05:31:02.070Z,2.15
2024-04-18T05:33:29.530Z,2.20
2024-04-18T05:35:56.321Z,2.28
2024-04-18T05:38:23.218Z,2.39
2024-04-18T05:40:53.375Z,2.53
2024-04-18T05:43:20.818Z,2.70
2024-04-18T05:45:51.045Z,2.84
2024-04-18T05:48:21.559Z,3.01
2024-04-18T05:50:48.284Z,3.17
2024-04-18T05:53:17.959Z,3.30
2024-04-18T05:55:44.770Z,3.37
2024-04-18T05:58:11.400Z,3.41
2024-04-18T06:00:40.393Z,3.44
2024-04-18T06:03:07.284Z,3.45
2024-04-18T06:05:34.410Z,3.47
2024-04-18T06:08:01.075Z,3.53
2024-04-18T06:10:30.752Z,3.58
2024-04-18T06:12:59.922Z,3.68
2024-04-18T06:15:29.090Z,3.80
2024-04-18T06:17:58.101Z,3.88
2024-04-18T06:20:30.829Z,3.99
2024-04-18T06:22:59.932Z,4.07
2024-04-18T06:25:27.287Z,4.17
2024-04-18T06:27:53.959Z,4.31
2024-04-18T06:30:23.027Z,4.44
2024-04-18T06:32:49.968Z,4.57
2024-04-18T06:35:18.903Z,4.66
2024-04-18T06:37:45.699Z,4.72
2024-04-18T06:40:17.022Z,4.76
2024-04-18T06:42:43.736Z,4.81
2024-04-18T06:45:10.477Z,4.85
2024-04-18T06:47:37.187Z,4.92
2024-04-18T06:50:03.975Z,5.04
2024-04-18T06:52:38.174Z,5.19
2024-04-18T06:55:07.336Z,5.31
2024-04-18T06:57:34.021Z,5.42
2024-04-18T07:00:03.153Z,5.52
2024-04-18T07:02:29.946Z,5.62
2024-04-18T07:04:56.651Z,5.72
2024-04-18T07:07:26.496Z,5.77
2024-04-18T07:09:53.144Z,5.86
2024-04-18T07:12:19.865Z,5.96
2024-04-18T07:14:46.574Z,6.05
2024-04-18T07:17:13.277Z,6.15
2024-04-18T07:19:40.033Z,6.23
2024-04-18T07:22:06.702Z,6.35
2024-04-18T07:24:35.753Z,6.49
2024-04-18T07:27:02.875Z,6.58
2024-04-18T07:29:29.584Z,6.89
2024-04-18T07:31:58.709Z,7.04
2024-04-18T07:34:25.526Z,7.16
2024-04-18T07:36:54.578Z,7.29
2024-04-18T07:39:21.422Z,7.33
2024-04-18T07:41:48.212Z,7.43
2024-04-18T07:44:18.744Z,7.49
2024-04-18T07:46:49.470Z,7.54
2024-04-18T07:49:16.136Z,7.53
2024-04-18T07:51:46.049Z,7.54
2024-04-18T07:54:12.926Z,7.63
2024-04-18T07:56:39.978Z,7.61
2024-04-18T07:59:10.436Z,7.63
2024-04-18T08:01:39.279Z,7.63
2024-04-18T08:04:34.355Z,7.76
2024-04-18T08:07:02.572Z,7.91
2024-04-18T08:12:23.888Z,8.04
2024-04-18T08:14:57.856Z,8.20
2024-04-18T08:17:27.763Z,8.31
2024-04-18T08:19:54.434Z,8.46
2024-04-18T08:22:23.442Z,8.56
2024-04-18T08:24:51.070Z,8.69
2024-04-18T08:27:17.859Z,8.80
2024-04-18T08:29:44.505Z,8.90
2024-04-18T08:32:11.685Z,9.07
2024-04-18T08:34:41.114Z,9.19
2024-04-18T08:37:09.752Z,9.33
2024-04-18T08:39:38.750Z,9.49
2024-04-18T08:42:08.026Z,9.60
2024-04-18T08:44:34.688Z,9.75
2024-04-18T08:47:02.331Z,9.99
2024-04-18T08:49:32.882Z,10.21
2024-04-18T08:52:00.200Z,10.45
2024-04-18T08:54:31.129Z,10.82
2024-04-18T08:57:01.163Z,11.13
2024-04-18T08:59:29.269Z,11.01
2024-04-18T09:01:56.226Z,11.15
2024-04-18T09:04:27.696Z,11.16
2024-04-18T09:06:54.341Z,11.07
2024-04-18T09:09:23.681Z,11.31
2024-04-18T09:11:50.393Z,11.17
2024-04-18T09:14:19.359Z,11.15
2024-04-18T09:16:50.711Z,10.91
2024-04-18T09:19:19.356Z,10.79
2024-04-18T09:21:48.555Z,10.52
2024-04-18T09:24:17.507Z,10.24
2024-04-18T09:26:44.289Z,9.92
2024-04-18T09:29:10.927Z,9.84
2024-04-18T09:31:43.517Z,10.29
2024-04-18T09:34:15.812Z,10.47
2024-04-18T09:36:46.328Z,10.67
2024-04-18T09:39:29.510Z,10.95
2024-04-18T09:42:11.350Z,11.11
2024-04-18T09:44:46.432Z,11.23
2024-04-18T09:47:14.818Z,11.26
2024-04-18T09:49:42.425Z,11.43
2024-04-18T09:52:10.430Z,11.67
2024-04-18T09:54:38.578Z,11.81
2024-04-18T09:57:06.608Z,11.85
2024-04-18T09:59:36.315Z,11.95
2024-04-18T10:02:06.098Z,12.08
2024-04-18T10:04:35.780Z,11.74
2024-04-18T10:07:09.195Z,11.68
2024-04-18T10:09:42.211Z,12.02
2024-04-18T10:12:13.147Z,12.37
2024-04-18T10:14:39.862Z,12.60
2024-04-18T10:17:08.818Z,12.53
2024-04-18T10:19:35.598Z,12.01
2024-04-18T10:22:16.664Z,12.25
2024-04-18T10:24:51.917Z,12.45
2024-04-18T10:27:21.693Z,12.61
2024-04-18T10:30:01.136Z,12.75
2024-04-18T10:32:32.471Z,12.15
2024-04-18T10:35:00.402Z,11.53
2024-04-18T10:37:29.536Z,11.32
2024-04-18T10:40:00.551Z,11.72
2024-04-18T10:42:27.434Z,11.97
2024-04-18T10:44:56.605Z,12.12
2024-04-18T10:47:23.645Z,12.31
2024-04-18T10:49:50.766Z,12.58
2024-04-18T10:52:20.392Z,12.89
2024-04-18T10:54:50.029Z,13.09
2024-04-18T10:57:16.808Z,13.00
2024-04-18T10:59:48.423Z,12.72
2024-04-18T11:02:15.617Z,12.47
2024-04-18T11:04:42.840Z,12.37
2024-04-18T11:07:09.830Z,12.13
2024-04-18T11:09:40.431Z,11.92
2024-04-18T11:12:07.955Z,11.81
2024-04-18T11:14:36.897Z,11.93
2024-04-18T11:17:03.686Z,12.06
2024-04-18T11:19:33.501Z,12.18
2024-04-18T11:22:06.828Z,12.28
2024-04-18T11:24:34.469Z,12.24
2024-04-18T11:27:08.891Z,11.99
2024-04-18T11:29:36.507Z,11.92
2024-04-18T11:32:07.299Z,11.90
2024-04-18T11:34:36.996Z,11.87
2024-04-18T11:37:04.754Z,12.08
2024-04-18T11:39:33.986Z,12.10
2024-04-18T11:42:03.371Z,11.87
2024-04-18T11:44:33.954Z,11.80
2024-04-18T11:47:00.958Z,11.74
2024-04-18T11:49:27.781Z,11.77
2024-04-18T11:51:57.905Z,11.90
2024-04-18T11:54:27.737Z,12.23
2024-04-18T11:56:55.237Z,12.64
2024-04-18T11:59:22.454Z,13.04
2024-04-18T12:01:49.158Z,13.26
2024-04-18T12:04:18.250Z,13.53
2024-04-18T12:06:46.761Z,13.74
2024-04-18T12:09:13.455Z,13.95
2024-04-18T12:11:40.152Z,13.76
2024-04-18T12:14:08.661Z,13.28
2024-04-18T12:16:38.204Z,13.01
2024-04-18T12:19:04.860Z,12.76
2024-04-18T12:21:31.634Z,12.55
2024-04-18T12:23:58.322Z,12.45
2024-04-18T12:26:27.485Z,12.30
2024-04-18T12:28:56.468Z,12.13
2024-04-18T12:31:26.166Z,11.93
2024-04-18T12:33:52.990Z,11.88
2024-04-18T12:36:23.332Z,11.96
2024-04-18T12:38:50.120Z,12.13
2024-04-18T12:41:16.793Z,12.34
2024-04-18T12:43:45.882Z,12.45
2024-04-18T12:46:22.093Z,12.38
2024-04-18T12:48:52.052Z,12.51
2024-04-18T12:51:21.214Z,12.90
2024-04-18T12:53:47.865Z,12.75
2024-04-18T12:56:20.862Z,12.34
2024-04-18T12:58:47.570Z,12.26
2024-04-18T13:01:14.641Z,12.27
2024-04-18T13:03:45.375Z,12.28
2024-04-18T13:06:12.452Z,12.18
2024-04-18T13:08:41.354Z,12.08
2024-04-18T13:11:10.436Z,11.99
2024-04-18T13:13:37.183Z,11.84
2024-04-18T13:16:06.674Z,11.74
2024-04-18T13:18:33.420Z,11.65
2024-04-18T13:21:00.210Z,11.60
2024-04-18T13:23:26.946Z,11.54
2024-04-18T13:25:54.748Z,11.49
2024-04-18T13:28:26.040Z,11.42
2024-04-18T13:30:52.770Z,11.42
2024-04-18T13:33:19.611Z,11.37
2024-04-18T13:35:46.670Z,11.37
2024-04-18T13:38:13.286Z,11.42
2024-04-18T13:40:42.199Z,11.61
2024-04-18T13:43:11.323Z,11.80
2024-04-18T13:45:38.210Z,11.93
2024-04-18T13:48:05.647Z,12.04
2024-04-18T13:50:34.895Z,12.23
2024-04-18T13:53:01.491Z,12.38
2024-04-18T13:55:28.601Z,12.46
2024-04-18T13:57:57.956Z,12.71
2024-04-18T14:00:27.778Z,13.15
2024-04-18T14:02:54.556Z,13.14
2024-04-18T14:05:21.865Z,13.09
2024-04-18T14:07:50.769Z,13.21
2024-04-18T14:10:17.608Z,13.26
2024-04-18T14:12:44.276Z,13.28
2024-04-18T14:15:36.884Z,12.88
2024-04-18T14:18:23.575Z,12.70
2024-04-18T14:20:55.019Z,12.45
2024-04-18T14:23:21.669Z,12.14
2024-04-18T14:25:48.263Z,11.86
2024-04-18T14:28:24.194Z,11.75
2024-04-18T14:31:03.145Z,11.76
2024-04-18T14:33:32.418Z,11.73
2024-04-18T14:36:01.544Z,11.73
2024-04-18T14:38:30.579Z,11.80
2024-04-18T14:41:06.176Z,12.13
2024-04-18T14:43:38.429Z,12.41
2024-04-18T14:46:05.203Z,12.54
2024-04-18T14:48:34.651Z,12.72
2024-04-18T14:51:06.289Z,12.85
2024-04-18T14:53:35.290Z,12.81
2024-04-18T14:56:01.971Z,13.18
2024-04-18T14:58:30.897Z,13.28
2024-04-18T15:00:57.673Z,13.18
2024-04-18T15:03:29.288Z,13.11
2024-04-18T15:05:57.465Z,13.04
2024-04-18T15:08:24.512Z,13.36
2024-04-18T15:10:51.622Z,13.63
2024-04-18T15:13:18.342Z,13.58
2024-04-18T15:15:47.563Z,13.21
2024-04-18T15:18:15.008Z,12.94
2024-04-18T15:20:41.963Z,13.10
2024-04-18T15:23:09.219Z,13.31
2024-04-18T15:25:38.361Z,13.32
2024-04-18T15:28:05.835Z,13.23
2024-04-18T15:30:35.136Z,13.18
2024-04-18T15:33:04.453Z,13.21
2024-04-18T15:35:31.372Z,13.24
2024-04-18T15:37:58.074Z,13.25
2024-04-18T15:40:24.888Z,12.95
2024-04-18T15:42:54.059Z,12.84
2024-04-18T15:45:20.896Z,12.93
2024-04-18T15:47:52.220Z,12.95
2024-04-18T15:50:24.570Z,13.00
2024-04-18T15:52:51.330Z,13.02
2024-04-18T15:55:21.894Z,12.91
2024-04-18T15:57:51.748Z,12.77
2024-04-18T16:00:18.776Z,12.72
2024-04-18T16:02:51.597Z,12.64
2024-04-18T16:05:22.322Z,12.46
2024-04-18T16:07:51.205Z,12.19
2024-04-18T16:10:17.817Z,11.99
2024-04-18T16:12:44.984Z,11.94
2024-04-18T16:15:11.635Z,11.90
2024-04-18T16:17:38.338Z,11.79
2024-04-18T16:20:05.323Z,11.74
2024-04-18T16:22:32.193Z,11.69
2024-04-18T16:24:58.845Z,11.65
2024-04-18T16:27:28.018Z,11.62
2024-04-18T16:29:57.158Z,11.59
2024-04-18T16:32:26.068Z,11.54
2024-04-18T16:34:55.092Z,11.49
2024-04-18T16:37:23.673Z,11.36
2024-04-18T16:39:51.436Z,11.23
2024-04-18T16:42:18.143Z,11.14
2024-04-18T16:44:44.863Z,11.11
2024-04-18T16:47:11.579Z,10.95
2024-04-18T16:49:43.157Z,10.89
2024-04-18T16:52:10.949Z,10.81
2024-04-18T16:54:45.654Z,10.76
2024-04-18T16:57:12.358Z,10.82
2024-04-18T16:59:41.255Z,10.85
2024-04-18T17:02:07.947Z,10.86
2024-04-18T17:04:36.388Z,10.74
2024-04-18T17:07:05.539Z,10.60
2024-04-18T17:09:34.726Z,10.52
2024-04-18T17:12:01.912Z,10.47
2024-04-18T17:14:28.688Z,10.31
2024-04-18T17:16:55.366Z,10.23
2024-04-18T17:19:25.102Z,10.17
2024-04-18T17:21:54.373Z,10.15
2024-04-18T17:24:28.404Z,10.09
2024-04-18T17:26:55.078Z,9.98
2024-04-18T17:29:21.760Z,9.90
2024-04-18T17:31:48.728Z,9.84
2024-04-18T17:34:15.527Z,9.73
2024-04-18T17:36:42.310Z,9.68
2024-04-18T17:39:09.453Z,9.62
2024-04-18T17:41:36.348Z,9.56
2024-04-18T17:44:03.205Z,9.52
2024-04-18T17:46:29.909Z,9.50
2024-04-18T17:48:59.097Z,9.46
2024-04-18T17:51:30.590Z,9.37
2024-04-18T17:53:57.235Z,9.31
2024-04-18T17:56:26.838Z,9.28
2024-04-18T17:58:57.042Z,9.18
2024-04-18T18:01:23.736Z,9.10
2024-04-18T18:03:52.768Z,9.08
2024-04-18T18:06:19.547Z,9.04
2024-04-18T18:08:46.211Z,8.98
2024-04-18T18:11:12.907Z,8.93
2024-04-18T18:13:42.581Z,8.87
2024-04-18T18:16:09.259Z,8.84
2024-04-18T18:18:40.083Z,8.74
2024-04-18T18:21:09.412Z,8.70
2024-04-18T18:23:40.931Z,8.68
2024-04-18T18:26:07.622Z,8.64
2024-04-18T18:28:35.166Z,8.57
2024-04-18T18:31:01.886Z,8.52
2024-04-18T18:33:33.451Z,8.46
2024-04-18T18:36:00.185Z,8.40
2024-04-18T18:38:26.858Z,8.33
2024-04-18T18:40:53.499Z,8.27
2024-04-18T18:43:22.458Z,8.22
2024-04-18T18:45:52.382Z,8.18
2024-04-18T18:48:23.923Z,8.10
2024-04-18T18:50:52.852Z,8.03
2024-04-18T18:53:19.506Z,8.00
2024-04-18T18:55:47.153Z,7.95
2024-04-18T18:58:13.867Z,7.91
2024-04-18T19:00:43.055Z,7.86
2024-04-18T19:03:10.360Z,7.81
2024-04-18T19:05:50.770Z,7.78
2024-04-18T19:08:22.121Z,7.73
2024-04-18T19:10:48.780Z,7.69
2024-04-18T19:13:15.412Z,7.66
2024-04-18T19:15:43.981Z,7.62
2024-04-18T19:18:13.113Z,7.59
2024-04-18T19:20:42.128Z,7.57
2024-04-18T19:23:10.934Z,7.55
2024-04-18T19:25:39.961Z,7.52
2024-04-18T19:28:08.362Z,7.49
2024-04-18T19:30:39.750Z,7.45
2024-04-18T19:33:06.857Z,7.44
2024-04-18T19:35:36.150Z,7.41
2024-04-18T19:38:05.006Z,7.39
2024-04-18T19:40:31.935Z,7.36
2024-04-18T19:42:58.646Z,7.33
2024-04-18T19:45:27.924Z,7.32
2024-04-18T19:47:54.587Z,7.29
2024-04-18T19:50:23.630Z,7.26
2024-04-18T19:52:50.392Z,7.23
2024-04-18T19:55:17.351Z,7.22
2024-04-18T19:57:46.595Z,7.20
2024-04-18T20:00:16.838Z,7.18
2024-04-18T20:02:44.783Z,7.16
2024-04-18T20:05:11.372Z,7.14
2024-04-18T20:07:38.045Z,7.12
2024-04-18T20:10:07.468Z,7.08
2024-04-18T20:12:34.127Z,7.08
2024-04-18T20:15:03.198Z,7.07
2024-04-18T20:17:29.884Z,7.06
2024-04-18T20:19:56.623Z,7.06
2024-04-18T20:22:25.728Z,7.04
2024-04-18T20:24:52.459Z,7.04
2024-04-18T20:27:19.731Z,7.03
2024-04-18T20:29:49.111Z,7.02
2024-04-18T20:32:21.012Z,7.00
2024-04-18T20:34:47.828Z,6.98
2024-04-18T20:37:16.830Z,6.97
2024-04-18T20:39:43.684Z,6.96
2024-04-18T20:42:14.001Z,6.94
2024-04-18T20:44:42.959Z,6.93
2024-04-18T20:47:12.148Z,6.94
2024-04-18T20:49:40.926Z,6.92
2024-04-18T20:52:07.562Z,6.91
2024-04-18T20:54:36.631Z,6.92
2024-04-18T20:57:03.452Z,6.92
2024-04-18T20:59:30.393Z,6.92
2024-04-18T21:01:58.123Z,6.92
2024-04-18T21:04:24.827Z,6.91
2024-04-18T21:06:51.641Z,6.90
2024-04-18T21:09:20.762Z,6.89
2024-04-18T21:11:47.421Z,6.87
2024-04-18T21:14:16.268Z,6.86
2024-04-18T21:16:44.240Z,6.86
2024-04-18T21:19:16.032Z,6.86
2024-04-18T21:21:44.952Z,6.85
2024-04-18T21:24:11.810Z,6.84
2024-04-18T21:26:38.479Z,6.83
2024-04-18T21:29:07.438Z,6.84
2024-04-18T21:31:36.429Z,6.84
2024-04-18T21:34:07.445Z,6.84
2024-04-18T21:36:36.904Z,6.84
2024-04-18T21:39:07.103Z,6.83
2024-04-18T21:41:39.495Z,6.83
2024-04-18T21:44:06.485Z,6.83
2024-04-18T21:46:35.919Z,6.83
2024-04-18T21:49:02.709Z,6.85
2024-04-18T21:51:29.531Z,6.86
2024-04-18T21:53:56.224Z,6.85
2024-04-18T21:56:25.124Z,6.87
2024-04-18T21:58:53.360Z,6.87
2024-04-18T22:01:22.900Z,6.87
2024-04-18T22:03:51.573Z,6.87
2024-04-18T22:06:22.839Z,6.88
2024-04-18T22:08:54.696Z,6.89
2024-04-18T22:11:21.286Z,6.88
2024-04-18T22:13:50.514Z,6.89
2024-04-18T22:16:17.148Z,6.90
2024-04-18T22:18:43.855Z,6.89
2024-04-18T22:21:10.577Z,6.88
2024-04-18T22:23:37.222Z,6.88
2024-04-18T22:26:04.513Z,6.85
2024-04-18T22:28:31.099Z,6.83
2024-04-18T22:31:00.263Z,6.78
2024-04-18T22:33:31.980Z,6.74
2024-04-18T22:35:58.857Z,6.71
2024-04-18T22:38:27.920Z,6.66
2024-04-18T22:40:56.757Z,6.63
2024-04-18T22:43:23.491Z,6.60
2024-04-18T22:45:55.023Z,6.58
2024-04-18T22:48:24.197Z,6.54
2024-04-18T22:50:55.635Z,6.52
2024-04-18T22:53:22.260Z,6.48
2024-04-18T22:55:55.237Z,6.49
2024-04-18T22:58:21.990Z,6.45
2024-04-18T23:00:49.141Z,6.42
2024-04-18T23:03:20.553Z,6.42
2024-04-18T23:05:50.197Z,6.39
2024-04-18T23:08:19.271Z,6.39
2024-04-18T23:10:47.878Z,6.39
2024-04-18T23:13:15.253Z,6.40
2024-04-18T23:15:42.029Z,6.39
2024-04-18T23:18:13.478Z,6.37
2024-04-18T23:20:40.246Z,6.35
2024-04-18T23:23:06.859Z,6.35
2024-04-18T23:25:38.004Z,6.36
2024-04-18T23:28:04.934Z,6.35
2024-04-18T23:30:31.684Z,6.34
2024-04-18T23:33:00.863Z,6.34
2024-04-18T23:35:27.469Z,6.35
2024-04-18T23:37:56.366Z,6.35
2024-04-18T23:40:22.979Z,6.35
2024-04-18T23:42:49.668Z,6.38
2024-04-18T23:45:16.469Z,6.36
2024-04-18T23:47:45.558Z,6.38
2024-04-18T23:50:14.497Z,6.38
2024-04-18T23:52:41.110Z,6.39
2024-04-18T23:55:07.706Z,6.39
2024-04-18T23:57:34.373Z,6.38
